Pagrindinis puslapis
METAR-TAF:

METAR-TAF

Oro uostai :

Kuveitas, Kuveitas

platuma: 29-13N, ilguma: 047-59E, Aukštis: 55 m

Dabartinis oras

Ataskaita buvo paskelbta 24 minutes, ne 22:00 UTC
Vėjas 15 kt iš Šiaurės
Temperatūra 37°C
Drėgmė 16%
Slėgis 1004 hPa
Matomumas 10 km arba daugiau
nėra debesų žemiau 1500 m ir nėra kamuolinių lietaus debesų

METAR: OKBK 052200Z 36015KT CAVOK 37/07 Q1004 NOSIG

Laikas: 01:24 (22:24 UTC)

Prognozė

Ataskaita buvo paskelbta 5 valandos ir 39 minutes, ne 16:45 UTC
Prognozė galioja nuo 05 metu 18 UTC su 06 metu 24 UTC
Vėjas 10 kt iš Šiaurės su gūsio iki 20 kt
Matomumas: 6000 m
Laikinai
nuo 06 metu 18 UTC su 07 metu 06 UTC
Matomumas: 4000 m
Dulkes pustymas

TAF: OKBK 051645Z 0518/0624 35010G20KT 6000 NSC TEMPO 0618/0706 4000 BLDU

Orai ataskaitas ir orų prognozės (METAR, TAF).

turimą stotys yra geltonos ir raudonos taškus žemėlapyje.

Perkelti pele per norėdami pamatyti stoties vardą.

Tada spustelėkite, norėdami matyti oro stebėjimo ir prognozės.

Norėdami pakeisti žemėlapį: spustelėkite ant žalios mygtukų su juodo kryžiaus žemyn,; žalią mygtuką su brūkšneliu, jei norite nutolinti; arba žalių rodyklių gretimoms žemėlapius.


METAR-TAF: